createdAt,value
2019-04-04T00:00:12.125Z,7.40
2019-04-04T00:02:41.474Z,7.95
2019-04-04T00:05:10.914Z,8.58
2019-04-04T00:07:40.329Z,9.00
2019-04-04T00:10:09.793Z,10.35
2019-04-04T00:12:39.627Z,9.23
2019-04-04T00:15:09.147Z,9.53
2019-04-04T00:17:38.563Z,8.83
2019-04-04T00:20:08.203Z,8.55
2019-04-04T00:22:37.616Z,8.13
2019-04-04T00:25:09.795Z,8.00
2019-04-04T00:27:38.243Z,7.85
2019-04-04T00:30:08.105Z,8.98
2019-04-04T00:32:37.581Z,8.45
2019-04-04T00:35:07.085Z,7.85
2019-04-04T00:37:36.578Z,8.35
2019-04-04T00:40:06.444Z,9.98
2019-04-04T00:42:35.827Z,8.90
2019-04-04T00:45:05.498Z,10.20
2019-04-04T00:47:35.031Z,8.40
2019-04-04T00:50:06.650Z,10.60
2019-04-04T00:52:35.954Z,10.53
2019-04-04T00:55:06.159Z,8.70
2019-04-04T00:57:35.587Z,10.98
2019-04-04T01:00:06.319Z,8.93
2019-04-04T01:02:35.690Z,9.40
2019-04-04T01:05:05.539Z,10.53
2019-04-04T01:07:35.817Z,9.05
2019-04-04T01:10:06.675Z,9.28
2019-04-04T01:12:36.335Z,10.20
2019-04-04T01:15:06.208Z,10.60
2019-04-04T01:17:35.772Z,11.10
2019-04-04T01:20:08.361Z,9.30
2019-04-04T01:22:37.831Z,10.45
2019-04-04T01:25:07.835Z,8.83
2019-04-04T01:27:37.665Z,10.75
2019-04-04T01:30:08.028Z,9.55
2019-04-04T01:32:37.460Z,9.20
2019-04-04T01:35:07.240Z,9.05
2019-04-04T01:37:36.683Z,9.23
2019-04-04T01:40:06.361Z,10.88
2019-04-04T01:42:37.798Z,9.93
2019-04-04T01:45:07.172Z,11.50
2019-04-04T01:47:36.535Z,11.05
2019-04-04T01:50:06.075Z,10.15
2019-04-04T01:52:35.471Z,12.28
2019-04-04T01:55:05.319Z,11.18
2019-04-04T01:57:34.723Z,11.83
2019-04-04T02:00:04.695Z,10.58
2019-04-04T02:02:34.018Z,11.15
2019-04-04T02:05:03.706Z,11.08
2019-04-04T02:07:32.995Z,9.85
2019-04-04T02:10:03.214Z,9.90
2019-04-04T02:12:33.446Z,10.82
2019-04-04T02:15:02.836Z,10.35
2019-04-04T02:17:32.135Z,11.18
2019-04-04T02:20:01.452Z,11.75
2019-04-04T02:22:31.547Z,11.30
2019-04-04T02:25:02.909Z,10.75
2019-04-04T02:27:31.965Z,11.48
2019-04-04T02:30:01.284Z,10.45
2019-04-04T02:32:30.683Z,10.85
2019-04-04T02:35:00.093Z,10.85
2019-04-04T02:37:29.508Z,12.98
2019-04-04T02:39:58.929Z,12.45
2019-04-04T02:42:28.329Z,9.88
2019-04-04T02:44:57.704Z,9.28
2019-04-04T02:47:27.153Z,10.85
2019-04-04T02:50:00.662Z,10.82
2019-04-04T02:52:27.561Z,10.13
2019-04-04T02:54:58.165Z,10.82
2019-04-04T02:57:27.876Z,10.15
2019-04-04T02:59:57.279Z,10.85
2019-04-04T03:02:26.581Z,10.28
2019-04-04T03:04:55.975Z,10.80
2019-04-04T03:07:29.784Z,10.03
2019-04-04T03:09:56.328Z,11.38
2019-04-04T03:12:26.846Z,11.40
2019-04-04T03:14:56.468Z,11.40
2019-04-04T03:17:25.867Z,11.35
2019-04-04T03:19:55.278Z,10.55
2019-04-04T03:22:27.558Z,11.97
2019-04-04T03:24:55.707Z,11.05
2019-04-04T03:27:26.782Z,11.25
2019-04-04T03:29:56.059Z,11.57
2019-04-04T03:32:25.463Z,10.23
2019-04-04T03:34:54.947Z,11.48
2019-04-04T03:37:24.373Z,10.85
2019-04-04T03:39:53.810Z,11.33
2019-04-04T03:42:23.215Z,10.50
2019-04-04T03:44:54.188Z,10.60
2019-04-04T03:47:23.799Z,11.68
2019-04-04T03:49:56.511Z,11.22
2019-04-04T03:52:24.306Z,11.33
2019-04-04T03:54:56.343Z,11.00
2019-04-04T03:57:24.738Z,11.78
2019-04-04T03:59:54.073Z,11.18
2019-04-04T04:02:23.511Z,12.13
2019-04-04T04:04:52.871Z,15.63
2019-04-04T04:07:22.254Z,13.43
2019-04-04T04:09:51.615Z,11.43
2019-04-04T04:12:21.039Z,12.90
2019-04-04T04:14:53.781Z,13.53
2019-04-04T04:17:21.548Z,14.28
2019-04-04T04:19:50.974Z,13.32
2019-04-04T04:22:20.326Z,12.73
2019-04-04T04:24:49.746Z,12.88
2019-04-04T04:27:19.178Z,15.13
2019-04-04T04:29:48.624Z,15.10
2019-04-04T04:32:21.405Z,12.23
2019-04-04T04:34:51.344Z,14.68
2019-04-04T04:37:21.128Z,13.98
2019-04-04T04:39:50.560Z,14.93
2019-04-04T04:42:21.224Z,16.42
2019-04-04T04:44:50.889Z,16.97
2019-04-04T04:47:22.941Z,15.75
2019-04-04T04:49:51.344Z,15.38
2019-04-04T04:52:20.761Z,15.80
2019-04-04T04:54:52.232Z,14.50
2019-04-04T04:57:29.549Z,15.08
2019-04-04T04:59:52.364Z,16.45
2019-04-04T05:02:22.338Z,16.17
2019-04-04T05:04:52.292Z,16.37
2019-04-04T05:07:21.751Z,17.15
2019-04-04T05:09:51.196Z,18.50
2019-04-04T05:12:21.846Z,16.25
2019-04-04T05:14:51.596Z,18.07
2019-04-04T05:17:20.965Z,19.23
2019-04-04T05:19:50.767Z,19.30
2019-04-04T05:22:20.197Z,19.10
2019-04-04T05:25:06.766Z,18.92
2019-04-04T05:27:20.615Z,19.70
2019-04-04T05:29:50.035Z,18.82
2019-04-04T05:32:21.760Z,20.30
2019-04-04T05:34:50.454Z,18.35
2019-04-04T05:37:19.853Z,17.60
2019-04-04T05:39:51.459Z,17.82
2019-04-04T05:42:20.282Z,17.02
2019-04-04T05:44:49.673Z,18.30
2019-04-04T05:47:19.017Z,18.65
2019-04-04T05:49:48.412Z,18.82
2019-04-04T05:52:17.796Z,17.48
2019-04-04T05:54:47.293Z,19.65
2019-04-04T05:57:19.746Z,18.85
2019-04-04T05:59:47.701Z,20.55
2019-04-04T06:02:17.031Z,19.50
2019-04-04T06:04:46.438Z,20.57
2019-04-04T06:07:16.432Z,20.77
2019-04-04T06:09:46.844Z,18.57
2019-04-04T06:12:16.446Z,18.50
2019-04-04T06:14:46.098Z,19.30
2019-04-04T06:17:15.565Z,19.20
2019-04-04T06:19:45.069Z,20.02
2019-04-04T06:22:14.446Z,21.93
2019-04-04T06:24:43.849Z,20.23
2019-04-04T06:27:13.186Z,20.43
2019-04-04T06:29:42.611Z,21.15
2019-04-04T06:32:11.969Z,23.52
2019-04-04T06:34:42.200Z,23.30
2019-04-04T06:37:12.355Z,21.68
2019-04-04T06:39:41.700Z,26.10
2019-04-04T06:42:11.388Z,24.72
2019-04-04T06:44:43.772Z,26.20
2019-04-04T06:47:11.817Z,26.82
2019-04-04T06:49:41.263Z,28.60
2019-04-04T06:52:10.610Z,28.23
2019-04-04T06:54:40.036Z,26.27
2019-04-04T06:57:09.492Z,26.27
2019-04-04T06:59:38.843Z,26.00
2019-04-04T07:02:08.185Z,25.37
2019-04-04T07:04:37.602Z,25.80
2019-04-04T07:07:06.958Z,29.00
2019-04-04T07:09:37.342Z,29.20
2019-04-04T07:12:07.293Z,27.00
2019-04-04T07:14:45.467Z,30.37
2019-04-04T07:17:08.802Z,27.95
2019-04-04T07:19:38.816Z,26.68
2019-04-04T07:22:08.164Z,31.35
2019-04-04T07:24:37.441Z,31.27
2019-04-04T07:27:06.886Z,29.25
2019-04-04T07:29:36.275Z,29.90
2019-04-04T07:32:07.195Z,29.70
2019-04-04T07:34:36.707Z,31.85
2019-04-04T07:37:06.114Z,32.13
2019-04-04T07:39:35.535Z,32.10
2019-04-04T07:42:04.907Z,28.02
2019-04-04T07:44:34.327Z,30.35
2019-04-04T07:47:03.643Z,30.25
2019-04-04T07:49:33.136Z,29.12
2019-04-04T07:52:02.494Z,30.32
2019-04-04T07:54:32.196Z,28.83
2019-04-04T07:57:01.686Z,30.27
2019-04-04T07:59:31.308Z,30.85
2019-04-04T08:02:00.724Z,29.10
2019-04-04T08:04:30.071Z,34.45
2019-04-04T08:06:59.524Z,31.05
2019-04-04T08:09:28.944Z,30.68
2019-04-04T08:11:58.315Z,32.65
2019-04-04T08:14:27.808Z,37.55
2019-04-04T08:16:57.299Z,31.17
2019-04-04T08:19:26.750Z,31.93
2019-04-04T08:21:56.213Z,33.70
2019-04-04T08:24:25.643Z,31.00
2019-04-04T08:26:55.071Z,33.08
2019-04-04T08:29:24.568Z,33.20
2019-04-04T08:31:55.750Z,34.05
2019-04-04T08:34:25.163Z,37.93
2019-04-04T08:36:54.577Z,32.88
2019-04-04T08:39:24.018Z,36.65
2019-04-04T08:41:53.461Z,31.95
2019-04-04T08:44:22.801Z,36.17
2019-04-04T08:46:52.194Z,34.33
2019-04-04T08:49:21.716Z,36.60
2019-04-04T08:51:51.266Z,34.20
2019-04-04T08:54:20.643Z,35.17
2019-04-04T08:56:50.077Z,32.67
2019-04-04T08:59:19.513Z,31.10
2019-04-04T09:01:48.960Z,32.33
2019-04-04T09:04:18.418Z,33.48
2019-04-04T09:06:47.923Z,33.08
2019-04-04T09:09:17.342Z,33.33
2019-04-04T09:11:46.859Z,30.97
2019-04-04T09:14:16.223Z,32.20
2019-04-04T09:16:45.709Z,30.90
2019-04-04T09:19:15.376Z,31.00
2019-04-04T09:21:44.795Z,28.57
2019-04-04T09:24:14.164Z,29.95
2019-04-04T09:26:43.630Z,29.55
2019-04-04T09:29:13.084Z,32.05
2019-04-04T09:31:42.483Z,29.87
2019-04-04T09:34:11.958Z,29.00
2019-04-04T09:36:41.349Z,31.45
2019-04-04T09:39:10.807Z,34.40
2019-04-04T09:41:40.281Z,35.68
2019-04-04T09:44:09.747Z,34.23
2019-04-04T09:46:39.231Z,30.90
2019-04-04T09:49:08.711Z,32.00
2019-04-04T09:51:38.171Z,32.35
2019-04-04T09:54:07.582Z,31.07
2019-04-04T09:56:36.926Z,29.15
2019-04-04T09:59:06.367Z,24.50
2019-04-04T10:01:35.831Z,25.10
2019-04-04T10:04:05.275Z,21.50
2019-04-04T10:06:34.613Z,24.18
2019-04-04T10:09:15.738Z,23.42
2019-04-04T10:11:37.319Z,23.80
2019-04-04T10:14:06.739Z,26.40
2019-04-04T10:16:36.140Z,24.50
2019-04-04T10:19:05.660Z,23.62
2019-04-04T10:21:35.030Z,27.85
2019-04-04T10:24:04.520Z,26.37
2019-04-04T10:26:33.951Z,25.43
2019-04-04T10:29:03.337Z,23.60
2019-04-04T10:31:32.848Z,23.67
2019-04-04T10:34:02.391Z,23.22
2019-04-04T10:36:31.885Z,24.25
2019-04-04T10:39:01.318Z,25.97
2019-04-04T10:41:30.796Z,26.17
2019-04-04T10:44:00.269Z,28.07
2019-04-04T10:46:29.683Z,30.97
2019-04-04T10:48:59.139Z,29.60
2019-04-04T10:51:28.582Z,32.40
2019-04-04T10:53:58.049Z,32.08
2019-04-04T10:56:27.546Z,30.52
2019-04-04T10:58:57.048Z,30.43
2019-04-04T11:01:26.464Z,29.63
2019-04-04T11:03:55.863Z,27.00
2019-04-04T11:06:25.360Z,26.70
2019-04-04T11:08:54.843Z,25.30
2019-04-04T11:11:24.389Z,27.45
2019-04-04T11:13:53.828Z,20.57
2019-04-04T11:16:29.958Z,27.52
2019-04-04T11:18:54.358Z,22.52
2019-04-04T11:21:23.833Z,26.10
2019-04-04T11:23:53.274Z,21.35
2019-04-04T11:26:22.801Z,23.45
2019-04-04T11:28:52.240Z,26.15
2019-04-04T11:31:21.616Z,22.45
2019-04-04T11:33:51.098Z,22.05
2019-04-04T11:36:20.593Z,19.82
2019-04-04T11:38:49.997Z,18.10
2019-04-04T11:41:19.425Z,18.30
2019-04-04T11:43:49.013Z,19.62
2019-04-04T11:46:18.681Z,21.17
2019-04-04T11:48:48.096Z,18.80
2019-04-04T11:51:17.663Z,16.37
2019-04-04T11:53:47.092Z,15.63
2019-04-04T11:56:16.450Z,15.90
2019-04-04T11:58:45.951Z,15.38
2019-04-04T12:01:15.899Z,13.15
2019-04-04T12:03:45.350Z,14.93
2019-04-04T12:06:14.835Z,14.68
2019-04-04T12:08:44.392Z,15.78
2019-04-04T12:11:13.813Z,12.40
2019-04-04T12:13:43.234Z,14.47
2019-04-04T12:16:12.795Z,15.30
2019-04-04T12:18:42.383Z,15.53
2019-04-04T12:21:11.844Z,16.70
2019-04-04T12:23:41.305Z,16.70
2019-04-04T12:26:10.814Z,15.03
2019-04-04T12:28:40.280Z,14.80
2019-04-04T12:31:09.805Z,15.30
2019-04-04T12:33:39.361Z,17.15
2019-04-04T12:36:09.060Z,14.87
2019-04-04T12:38:38.526Z,13.83
2019-04-04T12:41:08.008Z,12.53
2019-04-04T12:43:37.435Z,12.63
2019-04-04T12:46:06.890Z,13.05
2019-04-04T12:48:36.429Z,12.82
2019-04-04T12:51:06.090Z,11.60
2019-04-04T12:53:35.639Z,12.10
2019-04-04T12:56:05.147Z,11.08
2019-04-04T12:58:34.618Z,9.70
2019-04-04T13:01:04.075Z,8.70
2019-04-04T13:03:33.550Z,7.80
2019-04-04T13:06:03.076Z,7.00
2019-04-04T13:08:32.686Z,7.25
2019-04-04T13:11:02.158Z,8.13
2019-04-04T13:13:31.630Z,5.90
2019-04-04T13:16:01.075Z,7.90
2019-04-04T13:18:30.503Z,6.45
2019-04-04T13:20:59.970Z,8.05
2019-04-04T13:23:29.410Z,7.92
2019-04-04T13:25:58.774Z,8.10
2019-04-04T13:28:28.273Z,6.95
2019-04-04T13:30:57.811Z,6.40
2019-04-04T13:33:27.435Z,8.48
2019-04-04T13:35:56.864Z,6.62
2019-04-04T13:38:26.396Z,6.83
2019-04-04T13:40:55.751Z,6.87
2019-04-04T13:43:25.122Z,6.05
2019-04-04T13:45:54.531Z,6.22
2019-04-04T13:48:24.036Z,7.25
2019-04-04T13:50:53.652Z,7.50
2019-04-04T13:53:25.605Z,7.00
2019-04-04T13:55:54.475Z,8.85
2019-04-04T13:58:23.961Z,7.83
2019-04-04T14:00:53.540Z,7.05
2019-04-04T14:03:23.000Z,7.53
2019-04-04T14:05:52.513Z,7.25
2019-04-04T14:08:22.031Z,7.67
2019-04-04T14:10:58.043Z,7.78
2019-04-04T14:13:22.641Z,8.63
2019-04-04T14:15:52.115Z,8.55
2019-04-04T14:18:38.187Z,7.95
2019-04-04T14:21:03.440Z,7.72
2019-04-04T14:23:27.728Z,8.20
2019-04-04T14:25:59.579Z,8.45
2019-04-04T14:28:29.266Z,8.90
2019-04-04T14:30:58.934Z,7.97
2019-04-04T14:33:28.423Z,7.47
2019-04-04T14:35:58.085Z,8.03
2019-04-04T14:38:27.648Z,7.22
2019-04-04T14:41:05.515Z,7.25
2019-04-04T14:43:29.986Z,7.62
2019-04-04T14:45:59.569Z,8.48
2019-04-04T14:48:29.085Z,6.58
2019-04-04T14:50:59.882Z,6.53
2019-04-04T14:53:29.371Z,6.85
2019-04-04T14:55:58.959Z,7.65
2019-04-04T14:58:30.736Z,6.35
2019-04-04T15:00:59.637Z,8.08
2019-04-04T15:03:29.209Z,8.43
2019-04-04T15:05:58.715Z,7.03
2019-04-04T15:08:28.245Z,6.58
2019-04-04T15:10:57.713Z,6.65
2019-04-04T15:13:27.171Z,7.25
2019-04-04T15:16:16.030Z,6.42
2019-04-04T15:18:45.784Z,8.33
2019-04-04T15:21:17.105Z,6.53
2019-04-04T15:23:46.646Z,6.53
2019-04-04T15:26:16.112Z,6.60
2019-04-04T15:28:45.625Z,7.60
2019-04-04T15:31:15.101Z,7.10
2019-04-04T15:33:44.660Z,7.33
2019-04-04T15:36:14.130Z,7.97
2019-04-04T15:38:43.667Z,8.00
2019-04-04T15:41:13.164Z,9.20
2019-04-04T15:43:42.673Z,8.83
2019-04-04T15:46:12.258Z,7.10
2019-04-04T15:48:41.708Z,8.08
2019-04-04T15:51:12.653Z,10.58
2019-04-04T15:53:42.087Z,8.78
2019-04-04T15:56:11.464Z,8.65
2019-04-04T15:58:40.860Z,8.25
2019-04-04T16:01:10.280Z,8.30
2019-04-04T16:03:39.766Z,8.90
2019-04-04T16:06:09.160Z,7.60
2019-04-04T16:08:38.619Z,8.03
2019-04-04T16:11:08.163Z,6.70
2019-04-04T16:13:37.605Z,6.58
2019-04-04T16:16:07.071Z,7.12
2019-04-04T16:18:36.616Z,7.15
2019-04-04T16:21:06.016Z,6.70
2019-04-04T16:23:35.503Z,7.00
2019-04-04T16:26:05.198Z,8.35
2019-04-04T16:28:34.644Z,7.58
2019-04-04T16:31:04.616Z,6.75
2019-04-04T16:33:33.980Z,7.10
2019-04-04T16:36:05.463Z,8.40
2019-04-04T16:38:34.592Z,6.87
2019-04-04T16:41:03.960Z,6.80
2019-04-04T16:43:33.379Z,6.67
2019-04-04T16:46:02.877Z,8.33
2019-04-04T16:48:32.273Z,8.15
2019-04-04T16:51:01.698Z,7.33
2019-04-04T16:53:31.218Z,8.33
2019-04-04T16:56:00.629Z,8.95
2019-04-04T16:58:30.153Z,7.62
2019-04-04T17:00:59.613Z,8.63
2019-04-04T17:03:29.090Z,8.30
2019-04-04T17:05:58.547Z,9.45
2019-04-04T17:08:28.058Z,8.35
2019-04-04T17:10:57.483Z,9.50
2019-04-04T17:13:27.106Z,9.35
2019-04-04T17:15:56.570Z,9.55
2019-04-04T17:18:25.983Z,8.85
2019-04-04T17:20:55.452Z,8.33
2019-04-04T17:23:24.947Z,10.45
2019-04-04T17:25:56.207Z,8.90
2019-04-04T17:28:26.059Z,9.05
2019-04-04T17:30:55.666Z,10.10
2019-04-04T17:33:25.322Z,9.13
2019-04-04T17:35:54.755Z,8.60
2019-04-04T17:38:24.289Z,8.18
2019-04-04T17:40:53.806Z,10.45
2019-04-04T17:43:23.293Z,8.93
2019-04-04T17:45:52.949Z,8.50
2019-04-04T17:48:22.568Z,9.10
2019-04-04T17:50:51.946Z,8.30
2019-04-04T17:53:21.413Z,9.23
2019-04-04T17:55:51.131Z,6.42
2019-04-04T17:58:21.808Z,8.83
2019-04-04T18:00:51.232Z,8.00
2019-04-04T18:03:20.717Z,9.05
2019-04-04T18:05:50.137Z,7.92
2019-04-04T18:08:19.590Z,8.35
2019-04-04T18:10:49.125Z,9.28
2019-04-04T18:13:19.093Z,9.25
2019-04-04T18:15:49.857Z,8.13
2019-04-04T18:18:19.349Z,9.55
2019-04-04T18:20:48.920Z,10.08
2019-04-04T18:23:18.538Z,10.85
2019-04-04T18:25:47.922Z,9.83
2019-04-04T18:28:17.385Z,9.85
2019-04-04T18:30:46.755Z,10.90
2019-04-04T18:33:18.925Z,8.85
2019-04-04T18:35:47.412Z,10.40
2019-04-04T18:38:17.222Z,11.65
2019-04-04T18:40:46.736Z,10.58
2019-04-04T18:43:16.253Z,11.00
2019-04-04T18:45:45.886Z,10.08
2019-04-04T18:48:15.502Z,11.15
2019-04-04T18:50:44.956Z,11.78
2019-04-04T18:53:14.812Z,10.15
2019-04-04T18:55:44.482Z,10.20
2019-04-04T18:58:13.980Z,10.28
2019-04-04T19:00:43.560Z,11.40
2019-04-04T19:03:13.043Z,12.05
2019-04-04T19:05:42.481Z,10.90
2019-04-04T19:08:12.097Z,11.25
2019-04-04T19:10:41.654Z,9.48
2019-04-04T19:13:11.097Z,9.83
2019-04-04T19:15:40.473Z,9.63
2019-04-04T19:18:10.071Z,9.48
2019-04-04T19:20:39.585Z,9.68
2019-04-04T19:23:09.148Z,10.20
2019-04-04T19:25:38.666Z,10.55
2019-04-04T19:28:08.242Z,10.95
2019-04-04T19:30:37.669Z,9.25
2019-04-04T19:33:07.311Z,8.53
2019-04-04T19:35:36.713Z,10.28
2019-04-04T19:38:06.147Z,8.73
2019-04-04T19:40:35.552Z,7.47
2019-04-04T19:43:17.199Z,8.73
2019-04-04T19:45:36.437Z,8.80
2019-04-04T19:48:05.848Z,9.55
2019-04-04T19:50:38.946Z,7.60
2019-04-04T19:53:06.817Z,8.35
2019-04-04T19:55:36.272Z,9.18
2019-04-04T19:58:05.931Z,8.23
2019-04-04T20:00:35.403Z,8.35
2019-04-04T20:03:05.066Z,8.35
2019-04-04T20:05:34.587Z,9.00
2019-04-04T20:08:04.189Z,8.48
2019-04-04T20:10:33.599Z,8.73
2019-04-04T20:13:03.239Z,9.18
2019-04-04T20:15:32.667Z,8.93
2019-04-04T20:18:02.168Z,10.55
2019-04-04T20:20:31.582Z,9.48
2019-04-04T20:23:00.978Z,8.38
2019-04-04T20:25:30.480Z,9.65
2019-04-04T20:27:59.896Z,8.70
2019-04-04T20:30:39.621Z,9.18
2019-04-04T20:33:09.489Z,9.45
2019-04-04T20:35:38.917Z,10.08
2019-04-04T20:38:08.366Z,12.20
2019-04-04T20:40:39.620Z,9.95
2019-04-04T20:43:09.090Z,9.68
2019-04-04T20:45:38.428Z,11.00
2019-04-04T20:48:07.826Z,10.95
2019-04-04T20:50:37.349Z,13.28
2019-04-04T20:53:06.835Z,10.60
2019-04-04T20:55:36.447Z,11.03
2019-04-04T20:58:05.877Z,10.43
2019-04-04T21:00:35.365Z,11.57
2019-04-04T21:03:04.854Z,11.63
2019-04-04T21:05:34.272Z,13.20
2019-04-04T21:08:03.679Z,12.95
2019-04-04T21:10:33.106Z,13.13
2019-04-04T21:13:02.476Z,14.25
2019-04-04T21:15:31.778Z,14.63
2019-04-04T21:18:01.128Z,14.70
2019-04-04T21:20:30.527Z,12.93
2019-04-04T21:22:59.909Z,16.55
2019-04-04T21:25:29.446Z,14.85
2019-04-04T21:27:58.994Z,14.00
2019-04-04T21:30:28.478Z,12.10
2019-04-04T21:32:57.920Z,13.68
2019-04-04T21:35:27.339Z,12.78
2019-04-04T21:37:56.869Z,14.20
2019-04-04T21:40:26.215Z,12.70
2019-04-04T21:42:55.594Z,12.63
2019-04-04T21:45:25.050Z,14.00
2019-04-04T21:47:54.516Z,13.45
2019-04-04T21:50:23.974Z,13.55
2019-04-04T21:52:53.388Z,11.45
2019-04-04T21:55:22.724Z,12.28
2019-04-04T21:57:52.148Z,12.80
2019-04-04T22:00:23.173Z,12.47
2019-04-04T22:02:52.785Z,12.70
2019-04-04T22:05:22.103Z,12.75
2019-04-04T22:07:51.451Z,11.80
2019-04-04T22:10:20.862Z,12.80
2019-04-04T22:12:50.281Z,13.70
2019-04-04T22:15:19.695Z,14.10
2019-04-04T22:17:49.049Z,13.48
2019-04-04T22:20:18.368Z,13.62
2019-04-04T22:22:47.740Z,12.30
2019-04-04T22:25:17.110Z,14.40
2019-04-04T22:27:46.442Z,14.18
2019-04-04T22:30:18.301Z,12.73
2019-04-04T22:32:47.619Z,11.83
2019-04-04T22:35:17.017Z,13.35
2019-04-04T22:37:46.378Z,12.90
2019-04-04T22:40:15.741Z,15.00
2019-04-04T22:42:45.234Z,14.10
2019-04-04T22:45:14.833Z,13.93
2019-04-04T22:47:44.147Z,13.80
2019-04-04T22:50:13.491Z,12.80
2019-04-04T22:52:42.953Z,13.62
2019-04-04T22:55:12.391Z,13.38
2019-04-04T22:57:41.788Z,12.05
2019-04-04T23:00:11.521Z,14.40
2019-04-04T23:02:40.908Z,13.53
2019-04-04T23:05:10.467Z,12.82
2019-04-04T23:07:39.846Z,11.90
2019-04-04T23:10:09.855Z,12.33
2019-04-04T23:12:39.288Z,14.30
2019-04-04T23:15:10.938Z,14.35
2019-04-04T23:17:40.346Z,12.60
2019-04-04T23:20:09.933Z,14.40
2019-04-04T23:22:51.687Z,15.00
2019-04-04T23:25:10.669Z,13.20
2019-04-04T23:27:40.012Z,14.60
2019-04-04T23:30:09.846Z,13.32
2019-04-04T23:32:39.262Z,14.90
2019-04-04T23:35:08.735Z,14.65
2019-04-04T23:37:38.060Z,12.95
2019-04-04T23:40:07.474Z,13.85
2019-04-04T23:42:36.846Z,15.85
2019-04-04T23:45:06.839Z,16.40
2019-04-04T23:47:42.804Z,15.10
2019-04-04T23:50:07.862Z,17.95
2019-04-04T23:52:37.174Z,17.77
2019-04-04T23:55:06.891Z,16.42
2019-04-04T23:57:36.319Z,15.93
